sensor_id;sensor_type;location;lat;lon;timestamp;pressure;altitude;pressure_sealevel;temperature;humidity
66196;BME280;53000;45.182;5.736;2022-07-22T00:01:45;99320.47;;;30.24;31.11
66196;BME280;53000;45.182;5.736;2022-07-22T00:04:10;99317.44;;;30.21;30.54
66196;BME280;53000;45.182;5.736;2022-07-22T00:06:35;99314.63;;;30.21;30.88
66196;BME280;53000;45.182;5.736;2022-07-22T00:09:02;99317.16;;;30.22;30.98
66196;BME280;53000;45.182;5.736;2022-07-22T00:11:27;99311.84;;;30.21;30.97
66196;BME280;53000;45.182;5.736;2022-07-22T00:13:53;99309.38;;;30.19;30.95
66196;BME280;53000;45.182;5.736;2022-07-22T00:16:18;99315.53;;;30.16;31.25
66196;BME280;53000;45.182;5.736;2022-07-22T00:18:43;99310.28;;;30.14;31.15
66196;BME280;53000;45.182;5.736;2022-07-22T00:21:09;99310.56;;;30.13;31.34
66196;BME280;53000;45.182;5.736;2022-07-22T00:23:34;99308.91;;;30.12;31.12
66196;BME280;53000;45.182;5.736;2022-07-22T00:26:00;99312.00;;;30.10;31.38
66196;BME280;53000;45.182;5.736;2022-07-22T00:28:26;99307.53;;;30.09;31.42
66196;BME280;53000;45.182;5.736;2022-07-22T00:30:51;99308.97;;;30.07;31.20
66196;BME280;53000;45.182;5.736;2022-07-22T00:33:17;99304.00;;;30.04;31.28
66196;BME280;53000;45.182;5.736;2022-07-22T00:35:42;99306.53;;;30.00;31.30
66196;BME280;53000;45.182;5.736;2022-07-22T00:38:08;99300.41;;;29.98;31.60
66196;BME280;53000;45.182;5.736;2022-07-22T00:40:33;99294.91;;;29.93;31.29
66196;BME280;53000;45.182;5.736;2022-07-22T00:43:00;99304.03;;;29.99;31.23
66196;BME280;53000;45.182;5.736;2022-07-22T00:45:25;99302.94;;;30.00;31.48
66196;BME280;53000;45.182;5.736;2022-07-22T00:47:50;99303.50;;;29.96;31.39
66196;BME280;53000;45.182;5.736;2022-07-22T00:50:16;99307.72;;;29.94;31.61
66196;BME280;53000;45.182;5.736;2022-07-22T00:52:45;99308.00;;;29.92;31.61
66196;BME280;53000;45.182;5.736;2022-07-22T00:55:11;99310.59;;;29.89;31.57
66196;BME280;53000;45.182;5.736;2022-07-22T00:57:37;99299.78;;;29.82;31.43
66196;BME280;53000;45.182;5.736;2022-07-22T01:00:07;99305.94;;;29.79;31.58
66196;BME280;53000;45.182;5.736;2022-07-22T01:02:33;99299.88;;;29.72;31.73
66196;BME280;53000;45.182;5.736;2022-07-22T01:04:59;99300.75;;;29.67;31.71
66196;BME280;53000;45.182;5.736;2022-07-22T01:07:24;99300.50;;;29.64;32.01
66196;BME280;53000;45.182;5.736;2022-07-22T01:09:50;99296.03;;;29.63;32.07
66196;BME280;53000;45.182;5.736;2022-07-22T01:12:15;99294.09;;;29.63;32.06
66196;BME280;53000;45.182;5.736;2022-07-22T01:14:41;99295.75;;;29.64;32.41
66196;BME280;53000;45.182;5.736;2022-07-22T01:17:06;99294.09;;;29.63;32.77
66196;BME280;53000;45.182;5.736;2022-07-22T01:19:32;99294.38;;;29.62;32.52
66196;BME280;53000;45.182;5.736;2022-07-22T01:21:57;99301.94;;;29.61;32.89
66196;BME280;53000;45.182;5.736;2022-07-22T01:24:23;99293.84;;;29.60;32.91
66196;BME280;53000;45.182;5.736;2022-07-22T01:26:48;99294.97;;;29.59;32.78
66196;BME280;53000;45.182;5.736;2022-07-22T01:29:13;99290.25;;;29.54;33.19
66196;BME280;53000;45.182;5.736;2022-07-22T01:31:39;99293.91;;;29.54;33.36
66196;BME280;53000;45.182;5.736;2022-07-22T01:34:04;99285.28;;;29.51;33.37
66196;BME280;53000;45.182;5.736;2022-07-22T01:36:30;99291.97;;;29.50;33.35
66196;BME280;53000;45.182;5.736;2022-07-22T01:38:56;99287.59;;;29.44;33.44
66196;BME280;53000;45.182;5.736;2022-07-22T01:41:22;99290.69;;;29.42;33.62
66196;BME280;53000;45.182;5.736;2022-07-22T01:43:47;99289.31;;;29.40;33.54
66196;BME280;53000;45.182;5.736;2022-07-22T01:46:13;99290.50;;;29.33;34.05
66196;BME280;53000;45.182;5.736;2022-07-22T01:48:40;99302.22;;;29.30;33.59
66196;BME280;53000;45.182;5.736;2022-07-22T01:51:06;99296.69;;;29.25;33.74
66196;BME280;53000;45.182;5.736;2022-07-22T01:53:32;99293.63;;;29.27;33.72
66196;BME280;53000;45.182;5.736;2022-07-22T01:55:57;99293.09;;;29.25;33.34
66196;BME280;53000;45.182;5.736;2022-07-22T01:58:23;99297.50;;;29.26;34.03
66196;BME280;53000;45.182;5.736;2022-07-22T02:00:48;99289.75;;;29.23;33.48
66196;BME280;53000;45.182;5.736;2022-07-22T02:03:14;99296.75;;;29.20;34.03
66196;BME280;53000;45.182;5.736;2022-07-22T02:05:40;99285.09;;;29.13;33.95
66196;BME280;53000;45.182;5.736;2022-07-22T02:08:08;99294.28;;;29.13;33.85
66196;BME280;53000;45.182;5.736;2022-07-22T02:10:35;99292.91;;;29.11;33.82
66196;BME280;53000;45.182;5.736;2022-07-22T02:13:00;99288.72;;;29.08;33.88
66196;BME280;53000;45.182;5.736;2022-07-22T02:15:26;99294.28;;;29.08;33.88
66196;BME280;53000;45.182;5.736;2022-07-22T02:17:53;99287.63;;;29.04;34.28
66196;BME280;53000;45.182;5.736;2022-07-22T02:20:18;99288.47;;;29.05;34.13
66196;BME280;53000;45.182;5.736;2022-07-22T02:22:44;99291.56;;;29.03;33.92
66196;BME280;53000;45.182;5.736;2022-07-22T02:25:09;99294.91;;;29.00;33.81
66196;BME280;53000;45.182;5.736;2022-07-22T02:27:35;99295.84;;;28.90;33.70
66196;BME280;53000;45.182;5.736;2022-07-22T02:30:00;99292.53;;;28.83;33.96
66196;BME280;53000;45.182;5.736;2022-07-22T02:32:26;99289.25;;;28.76;33.68
66196;BME280;53000;45.182;5.736;2022-07-22T02:34:51;99297.44;;;28.62;34.32
66196;BME280;53000;45.182;5.736;2022-07-22T02:37:16;99289.41;;;28.50;34.10
66196;BME280;53000;45.182;5.736;2022-07-22T02:39:42;99296.94;;;28.45;34.23
66196;BME280;53000;45.182;5.736;2022-07-22T02:42:07;99289.16;;;28.42;34.35
66196;BME280;53000;45.182;5.736;2022-07-22T02:44:33;99295.56;;;28.42;34.33
66196;BME280;53000;45.182;5.736;2022-07-22T02:46:58;99285.56;;;28.41;34.33
66196;BME280;53000;45.182;5.736;2022-07-22T02:49:23;99295.31;;;28.39;34.80
66196;BME280;53000;45.182;5.736;2022-07-22T02:51:49;99289.75;;;28.39;34.35
66196;BME280;53000;45.182;5.736;2022-07-22T02:54:14;99289.75;;;28.39;35.38
66196;BME280;53000;45.182;5.736;2022-07-22T02:56:40;99290.84;;;28.38;34.39
66196;BME280;53000;45.182;5.736;2022-07-22T02:59:05;99286.69;;;28.35;34.36
66196;BME280;53000;45.182;5.736;2022-07-22T03:01:32;99284.78;;;28.30;34.86
66196;BME280;53000;45.182;5.736;2022-07-22T03:03:57;99284.78;;;28.25;34.58
66196;BME280;53000;45.182;5.736;2022-07-22T03:06:22;99287.03;;;28.23;34.95
66196;BME280;53000;45.182;5.736;2022-07-22T03:08:48;99283.72;;;28.16;34.97
66196;BME280;53000;45.182;5.736;2022-07-22T03:11:13;99283.75;;;28.11;35.53
66196;BME280;53000;45.182;5.736;2022-07-22T03:13:39;99288.47;;;28.10;35.23
66196;BME280;53000;45.182;5.736;2022-07-22T03:16:04;99287.66;;;28.10;35.01
66196;BME280;53000;45.182;5.736;2022-07-22T03:18:29;99283.75;;;28.11;35.22
66196;BME280;53000;45.182;5.736;2022-07-22T03:20:55;99291.25;;;28.10;35.77
66196;BME280;53000;45.182;5.736;2022-07-22T03:23:20;99288.50;;;28.05;35.27
66196;BME280;53000;45.182;5.736;2022-07-22T03:25:46;99289.91;;;27.98;35.72
66196;BME280;53000;45.182;5.736;2022-07-22T03:28:12;99288.53;;;27.95;35.57
66196;BME280;53000;45.182;5.736;2022-07-22T03:30:37;99286.34;;;27.92;35.62
66196;BME280;53000;45.182;5.736;2022-07-22T03:33:03;99283.88;;;27.85;35.69
66196;BME280;53000;45.182;5.736;2022-07-22T03:35:28;99290.81;;;27.88;35.67
66196;BME280;53000;45.182;5.736;2022-07-22T03:37:54;99292.75;;;27.87;35.43
66196;BME280;53000;45.182;5.736;2022-07-22T03:40:19;99293.84;;;27.86;35.61
66196;BME280;53000;45.182;5.736;2022-07-22T03:42:44;99300.56;;;27.85;35.77
66196;BME280;53000;45.182;5.736;2022-07-22T03:45:10;99306.34;;;27.84;36.42
66196;BME280;53000;45.182;5.736;2022-07-22T03:47:35;99303.56;;;27.84;35.52
66196;BME280;53000;45.182;5.736;2022-07-22T03:50:01;99305.53;;;27.83;35.65
66196;BME280;53000;45.182;5.736;2022-07-22T03:52:28;99306.63;;;27.82;35.91
66196;BME280;53000;45.182;5.736;2022-07-22T03:54:53;99296.63;;;27.76;36.25
66196;BME280;53000;45.182;5.736;2022-07-22T03:57:19;99309.69;;;27.81;36.10
66196;BME280;53000;45.182;5.736;2022-07-22T03:59:45;99311.09;;;27.83;35.74
66196;BME280;53000;45.182;5.736;2022-07-22T04:02:10;99298.03;;;27.79;35.95
66196;BME280;53000;45.182;5.736;2022-07-22T04:04:35;99302.19;;;27.81;36.01
66196;BME280;53000;45.182;5.736;2022-07-22T04:07:01;99305.25;;;27.80;35.87
66196;BME280;53000;45.182;5.736;2022-07-22T04:09:26;99308.88;;;27.80;36.14
66196;BME280;53000;45.182;5.736;2022-07-22T04:11:51;99305.81;;;27.82;36.13
66196;BME280;53000;45.182;5.736;2022-07-22T04:14:18;99311.09;;;27.83;35.73
66196;BME280;53000;45.182;5.736;2022-07-22T04:16:43;99304.69;;;27.83;35.70
66196;BME280;53000;45.182;5.736;2022-07-22T04:19:09;99304.69;;;27.83;35.64
66196;BME280;53000;45.182;5.736;2022-07-22T04:21:35;99304.69;;;27.83;35.66
66196;BME280;53000;45.182;5.736;2022-07-22T04:24:00;99306.09;;;27.80;35.54
66196;BME280;53000;45.182;5.736;2022-07-22T04:26:26;99300.53;;;27.80;35.80
66196;BME280;53000;45.182;5.736;2022-07-22T04:28:51;99301.91;;;27.78;35.89
66196;BME280;53000;45.182;5.736;2022-07-22T04:31:16;99311.09;;;27.78;36.17
66196;BME280;53000;45.182;5.736;2022-07-22T04:33:42;99317.78;;;27.77;36.02
66196;BME280;53000;45.182;5.736;2022-07-22T04:36:07;99315.00;;;27.77;35.93
66196;BME280;53000;45.182;5.736;2022-07-22T04:38:33;99312.78;;;27.79;35.67
66196;BME280;53000;45.182;5.736;2022-07-22T04:40:58;99312.47;;;27.81;36.48
66196;BME280;53000;45.182;5.736;2022-07-22T04:43:24;99313.31;;;27.81;36.09
66196;BME280;53000;45.182;5.736;2022-07-22T04:45:50;99308.31;;;27.83;35.97
66196;BME280;53000;45.182;5.736;2022-07-22T04:48:16;99305.25;;;27.80;36.36
66196;BME280;53000;45.182;5.736;2022-07-22T04:50:42;99306.13;;;27.85;36.09
66196;BME280;53000;45.182;5.736;2022-07-22T04:53:07;99315.53;;;27.84;35.52
66196;BME280;53000;45.182;5.736;2022-07-22T04:55:32;99311.09;;;27.83;36.43
66196;BME280;53000;45.182;5.736;2022-07-22T04:57:58;99311.09;;;27.83;36.48
66196;BME280;53000;45.182;5.736;2022-07-22T05:00:23;99315.25;;;27.81;36.18
66196;BME280;53000;45.182;5.736;2022-07-22T05:02:49;99306.66;;;27.77;36.40
66196;BME280;53000;45.182;5.736;2022-07-22T05:05:15;99304.16;;;27.76;36.60
66196;BME280;53000;45.182;5.736;2022-07-22T05:07:40;99314.44;;;27.75;37.33
66196;BME280;53000;45.182;5.736;2022-07-22T05:10:06;99313.91;;;27.73;37.43
66196;BME280;53000;45.182;5.736;2022-07-22T05:12:32;99308.59;;;27.71;37.27
66196;BME280;53000;45.182;5.736;2022-07-22T05:14:57;99313.06;;;27.72;37.38
66196;BME280;53000;45.182;5.736;2022-07-22T05:17:23;99307.22;;;27.69;37.63
66196;BME280;53000;45.182;5.736;2022-07-22T05:19:48;99309.75;;;27.70;37.10
66196;BME280;53000;45.182;5.736;2022-07-22T05:22:14;99315.56;;;27.74;36.98
66196;BME280;53000;45.182;5.736;2022-07-22T05:24:39;99308.06;;;27.74;37.78
66196;BME280;53000;45.182;5.736;2022-07-22T05:27:05;99306.94;;;27.76;37.42
66196;BME280;53000;45.182;5.736;2022-07-22T05:29:30;99307.75;;;27.76;37.79
66196;BME280;53000;45.182;5.736;2022-07-22T05:31:56;99308.63;;;27.77;37.56
66196;BME280;53000;45.182;5.736;2022-07-22T05:34:21;99309.72;;;27.76;37.40
66196;BME280;53000;45.182;5.736;2022-07-22T05:36:47;99313.31;;;27.81;37.86
66196;BME280;53000;45.182;5.736;2022-07-22T05:39:12;99304.97;;;27.81;37.89
66196;BME280;53000;45.182;5.736;2022-07-22T05:41:38;99309.97;;;27.84;37.81
66196;BME280;53000;45.182;5.736;2022-07-22T05:44:04;99310.53;;;27.81;37.56
66196;BME280;53000;45.182;5.736;2022-07-22T05:46:30;99322.78;;;27.80;37.21
66196;BME280;53000;45.182;5.736;2022-07-22T05:48:55;99315.84;;;27.78;37.35
66196;BME280;53000;45.182;5.736;2022-07-22T05:51:21;99321.13;;;27.79;37.94
66196;BME280;53000;45.182;5.736;2022-07-22T05:53:46;99324.72;;;27.80;37.59
66196;BME280;53000;45.182;5.736;2022-07-22T05:56:12;99322.53;;;27.77;37.70
66196;BME280;53000;45.182;5.736;2022-07-22T05:58:39;99320.56;;;27.77;37.80
66196;BME280;53000;45.182;5.736;2022-07-22T06:01:04;99316.09;;;27.81;38.07
66196;BME280;53000;45.182;5.736;2022-07-22T06:03:29;99318.31;;;27.84;37.28
66196;BME280;53000;45.182;5.736;2022-07-22T06:05:55;99320.84;;;27.86;37.87
66196;BME280;53000;45.182;5.736;2022-07-22T06:08:20;99320.84;;;27.86;37.95
66196;BME280;53000;45.182;5.736;2022-07-22T06:10:46;99323.06;;;27.89;37.74
66196;BME280;53000;45.182;5.736;2022-07-22T06:13:12;99311.66;;;27.90;37.41
66196;BME280;53000;45.182;5.736;2022-07-22T06:15:37;99316.91;;;27.97;37.89
66196;BME280;53000;45.182;5.736;2022-07-22T06:18:02;99313.28;;;28.02;38.11
66196;BME280;53000;45.182;5.736;2022-07-22T06:20:28;99321.06;;;28.05;37.69
66196;BME280;53000;45.182;5.736;2022-07-22T06:22:53;99323.28;;;28.08;37.56
66196;BME280;53000;45.182;5.736;2022-07-22T06:25:19;99319.38;;;28.09;37.48
66196;BME280;53000;45.182;5.736;2022-07-22T06:27:44;99331.34;;;28.09;37.58
66196;BME280;53000;45.182;5.736;2022-07-22T06:30:10;99321.63;;;28.07;38.33
66196;BME280;53000;45.182;5.736;2022-07-22T06:32:35;99326.88;;;28.08;37.32
66196;BME280;53000;45.182;5.736;2022-07-22T06:35:02;99317.16;;;28.11;37.54
66196;BME280;53000;45.182;5.736;2022-07-22T06:37:27;99325.19;;;28.12;37.43
66196;BME280;53000;45.182;5.736;2022-07-22T06:39:52;99323.00;;;28.09;37.40
66196;BME280;53000;45.182;5.736;2022-07-22T06:42:18;99322.72;;;28.11;37.46
66196;BME280;53000;45.182;5.736;2022-07-22T06:44:43;99315.47;;;28.15;37.75
66196;BME280;53000;45.182;5.736;2022-07-22T06:47:08;99319.31;;;28.19;37.37
66196;BME280;53000;45.182;5.736;2022-07-22T06:49:34;99325.16;;;28.23;36.97
66196;BME280;53000;45.182;5.736;2022-07-22T06:52:00;99319.31;;;28.24;37.33
66196;BME280;53000;45.182;5.736;2022-07-22T06:54:26;99323.75;;;28.30;37.40
66196;BME280;53000;45.182;5.736;2022-07-22T06:56:52;99321.22;;;28.34;37.27
66196;BME280;53000;45.182;5.736;2022-07-22T06:59:18;99324.22;;;28.43;37.23
66196;BME280;53000;45.182;5.736;2022-07-22T07:01:44;99317.81;;;28.47;37.25
66196;BME280;53000;45.182;5.736;2022-07-22T07:04:09;99322.25;;;28.53;36.87
66196;BME280;53000;45.182;5.736;2022-07-22T07:06:35;99313.34;;;28.57;36.97
66196;BME280;53000;45.182;5.736;2022-07-22T07:09:00;99320.22;;;28.64;36.92
66196;BME280;53000;45.182;5.736;2022-07-22T07:11:26;99309.63;;;28.66;37.02
66196;BME280;53000;45.182;5.736;2022-07-22T07:13:51;99318.25;;;28.70;37.26
66196;BME280;53000;45.182;5.736;2022-07-22T07:16:17;99313.50;;;28.75;37.00
66196;BME280;53000;45.182;5.736;2022-07-22T07:18:42;99310.94;;;28.84;36.81
66196;BME280;53000;45.182;5.736;2022-07-22T07:21:08;99308.63;;;28.91;36.25
66196;BME280;53000;45.182;5.736;2022-07-22T07:23:33;99310.25;;;28.98;36.64
66196;BME280;53000;45.182;5.736;2022-07-22T07:25:59;99313.53;;;29.05;36.27
66196;BME280;53000;45.182;5.736;2022-07-22T07:28:24;99305.41;;;29.13;36.25
66196;BME280;53000;45.182;5.736;2022-07-22T07:30:50;99299.00;;;29.18;36.13
66196;BME280;53000;45.182;5.736;2022-07-22T07:33:15;99305.88;;;29.26;35.75
66196;BME280;53000;45.182;5.736;2022-07-22T07:35:41;99303.63;;;29.28;35.76
66196;BME280;53000;45.182;5.736;2022-07-22T07:38:06;99290.78;;;29.32;36.01
66196;BME280;53000;45.182;5.736;2022-07-22T07:40:32;99301.28;;;29.40;35.67
66196;BME280;53000;45.182;5.736;2022-07-22T07:42:58;99293.72;;;29.46;35.40
66196;BME280;53000;45.182;5.736;2022-07-22T07:45:23;99286.94;;;29.52;35.06
66196;BME280;53000;45.182;5.736;2022-07-22T07:47:49;99293.56;;;29.61;35.50
66196;BME280;53000;45.182;5.736;2022-07-22T07:50:14;99289.59;;;29.67;35.19
66196;BME280;53000;45.182;5.736;2022-07-22T07:52:42;99279.34;;;29.87;34.79
66196;BME280;53000;45.182;5.736;2022-07-22T07:55:08;99277.50;;;31.01;33.73
66196;BME280;53000;45.182;5.736;2022-07-22T07:57:35;99285.00;;;32.63;32.43
66196;BME280;53000;45.182;5.736;2022-07-22T08:00:01;99286.53;;;33.99;30.27
66196;BME280;53000;45.182;5.736;2022-07-22T08:02:27;99278.47;;;35.16;27.25
66196;BME280;53000;45.182;5.736;2022-07-22T08:04:53;99279.03;;;36.04;26.84
66196;BME280;53000;45.182;5.736;2022-07-22T08:07:18;99279.16;;;36.88;26.09
66196;BME280;53000;45.182;5.736;2022-07-22T08:09:43;99277.91;;;37.64;26.19
66196;BME280;53000;45.182;5.736;2022-07-22T08:12:09;99283.25;;;38.52;23.98
66196;BME280;53000;45.182;5.736;2022-07-22T08:14:34;99273.47;;;39.18;24.33
66196;BME280;53000;45.182;5.736;2022-07-22T08:17:00;99277.69;;;39.84;24.38
66196;BME280;53000;45.182;5.736;2022-07-22T08:19:26;99276.50;;;40.88;23.16
66196;BME280;53000;45.182;5.736;2022-07-22T08:21:51;99275.22;;;41.90;21.67
66196;BME280;53000;45.182;5.736;2022-07-22T08:24:17;99274.09;;;42.75;19.38
66196;BME280;53000;45.182;5.736;2022-07-22T08:26:42;99275.75;;;43.43;19.57
66196;BME280;53000;45.182;5.736;2022-07-22T08:29:07;99274.19;;;43.94;17.75
66196;BME280;53000;45.182;5.736;2022-07-22T08:31:35;99278.56;;;44.33;17.05
66196;BME280;53000;45.182;5.736;2022-07-22T08:34:02;99284.06;;;44.63;17.02
66196;BME280;53000;45.182;5.736;2022-07-22T08:36:28;99277.72;;;44.95;18.40
66196;BME280;53000;45.182;5.736;2022-07-22T08:38:53;99273.28;;;45.08;17.74
66196;BME280;53000;45.182;5.736;2022-07-22T08:41:22;99272.88;;;45.06;17.51
66196;BME280;53000;45.182;5.736;2022-07-22T08:43:49;99274.84;;;44.95;17.13
66196;BME280;53000;45.182;5.736;2022-07-22T08:46:14;99272.31;;;44.79;17.68
66196;BME280;53000;45.182;5.736;2022-07-22T08:48:40;99261.94;;;44.45;17.70
66196;BME280;53000;45.182;5.736;2022-07-22T08:51:06;99253.19;;;44.17;16.90
66196;BME280;53000;45.182;5.736;2022-07-22T08:53:32;99254.16;;;43.87;18.28
66196;BME280;53000;45.182;5.736;2022-07-22T08:55:58;99250.63;;;43.56;18.57
66196;BME280;53000;45.182;5.736;2022-07-22T08:58:24;99259.84;;;43.39;18.66
66196;BME280;53000;45.182;5.736;2022-07-22T09:01:10;99258.97;;;43.01;18.70
66196;BME280;53000;45.182;5.736;2022-07-22T09:03:55;99243.38;;;42.91;18.87
66196;BME280;53000;45.182;5.736;2022-07-22T09:06:24;99242.38;;;43.06;18.57
66196;BME280;53000;45.182;5.736;2022-07-22T09:08:56;99238.50;;;43.25;18.88
66196;BME280;53000;45.182;5.736;2022-07-22T09:11:24;99230.16;;;43.47;18.83
66196;BME280;53000;45.182;5.736;2022-07-22T09:13:51;99228.59;;;43.53;18.03
66196;BME280;53000;45.182;5.736;2022-07-22T09:16:40;99227.97;;;43.70;18.42
66196;BME280;53000;45.182;5.736;2022-07-22T09:19:06;99222.47;;;43.96;16.85
66196;BME280;53000;45.182;5.736;2022-07-22T09:21:32;99230.63;;;43.97;17.66
66196;BME280;53000;45.182;5.736;2022-07-22T09:23:59;99216.72;;;43.88;17.84
66196;BME280;53000;45.182;5.736;2022-07-22T09:26:38;99213.56;;;44.01;17.18
66196;BME280;53000;45.182;5.736;2022-07-22T09:29:05;99204.81;;;43.79;17.31
66196;BME280;53000;45.182;5.736;2022-07-22T09:31:35;99200.94;;;43.57;18.07
66196;BME280;53000;45.182;5.736;2022-07-22T09:34:02;99208.97;;;43.41;18.21
66196;BME280;53000;45.182;5.736;2022-07-22T09:36:28;99197.66;;;43.52;18.14
66196;BME280;53000;45.182;5.736;2022-07-22T09:38:54;99198.06;;;43.50;17.42
66196;BME280;53000;45.182;5.736;2022-07-22T09:41:20;99199.72;;;43.55;17.78
66196;BME280;53000;45.182;5.736;2022-07-22T09:43:45;99200.53;;;43.55;17.56
66196;BME280;53000;45.182;5.736;2022-07-22T09:46:11;99194.72;;;43.44;17.62
66196;BME280;53000;45.182;5.736;2022-07-22T09:48:39;99190.59;;;43.38;17.25
66196;BME280;53000;45.182;5.736;2022-07-22T09:51:06;99197.47;;;43.30;17.64
66196;BME280;53000;45.182;5.736;2022-07-22T09:53:32;99194.50;;;43.23;17.68
66196;BME280;53000;45.182;5.736;2022-07-22T09:56:02;99187.19;;;43.22;18.23
66196;BME280;53000;45.182;5.736;2022-07-22T09:58:28;99192.16;;;43.28;17.84
66196;BME280;53000;45.182;5.736;2022-07-22T10:00:58;99185.59;;;43.24;16.99
66196;BME280;53000;45.182;5.736;2022-07-22T10:03:27;99174.88;;;43.14;17.65
66196;BME280;53000;45.182;5.736;2022-07-22T10:05:53;99168.34;;;43.10;17.72
66196;BME280;53000;45.182;5.736;2022-07-22T10:08:19;99170.19;;;42.92;16.64
66196;BME280;53000;45.182;5.736;2022-07-22T10:10:45;99166.59;;;42.64;16.81
66196;BME280;53000;45.182;5.736;2022-07-22T10:13:10;99163.16;;;42.48;17.43
66196;BME280;53000;45.182;5.736;2022-07-22T10:15:36;99155.19;;;42.31;16.99
66196;BME280;53000;45.182;5.736;2022-07-22T10:18:08;99158.22;;;42.15;17.28
66196;BME280;53000;45.182;5.736;2022-07-22T10:20:35;99156.25;;;41.92;17.55
66196;BME280;53000;45.182;5.736;2022-07-22T10:25:29;99151.13;;;41.52;18.53
66196;BME280;53000;45.182;5.736;2022-07-22T10:30:30;99138.84;;;41.21;18.58
66196;BME280;53000;45.182;5.736;2022-07-22T10:33:12;99127.97;;;41.03;18.54
66196;BME280;53000;45.182;5.736;2022-07-22T10:38:22;99108.81;;;40.58;19.06
66196;BME280;53000;45.182;5.736;2022-07-22T10:40:56;99122.16;;;40.54;19.05
66196;BME280;53000;45.182;5.736;2022-07-22T10:43:30;99116.31;;;40.46;19.56
66196;BME280;53000;45.182;5.736;2022-07-22T10:45:58;99113.78;;;40.41;19.86
66196;BME280;53000;45.182;5.736;2022-07-22T10:51:14;99102.94;;;40.47;19.19
66196;BME280;53000;45.182;5.736;2022-07-22T10:59:10;99086.72;;;40.08;19.22
66196;BME280;53000;45.182;5.736;2022-07-22T11:01:38;99078.16;;;40.05;19.85
66196;BME280;53000;45.182;5.736;2022-07-22T11:04:09;99075.78;;;39.88;19.61
66196;BME280;53000;45.182;5.736;2022-07-22T11:06:35;99077.88;;;39.75;19.63
66196;BME280;53000;45.182;5.736;2022-07-22T11:09:04;99066.66;;;39.62;19.67
66196;BME280;53000;45.182;5.736;2022-07-22T11:11:53;99068.34;;;39.47;19.68
66196;BME280;53000;45.182;5.736;2022-07-22T11:14:30;99063.78;;;39.43;19.15
66196;BME280;53000;45.182;5.736;2022-07-22T11:17:07;99053.91;;;39.37;19.64
66196;BME280;53000;45.182;5.736;2022-07-22T11:19:34;99054.66;;;39.18;19.03
66196;BME280;53000;45.182;5.736;2022-07-22T11:22:05;99041.06;;;39.08;19.55
66196;BME280;53000;45.182;5.736;2022-07-22T11:24:32;99030.66;;;39.12;19.78
66196;BME280;53000;45.182;5.736;2022-07-22T11:26:58;99038.28;;;39.27;19.80
66196;BME280;53000;45.182;5.736;2022-07-22T11:29:25;99032.78;;;39.50;19.97
66196;BME280;53000;45.182;5.736;2022-07-22T11:31:52;99024.88;;;39.75;19.76
66196;BME280;53000;45.182;5.736;2022-07-22T11:34:18;99025.22;;;39.90;18.88
66196;BME280;53000;45.182;5.736;2022-07-22T11:36:46;99019.00;;;40.03;18.86
66196;BME280;53000;45.182;5.736;2022-07-22T11:39:13;99015.13;;;40.12;18.94
66196;BME280;53000;45.182;5.736;2022-07-22T11:41:40;99011.91;;;40.13;18.71
66196;BME280;53000;45.182;5.736;2022-07-22T11:44:06;99005.50;;;40.16;17.40
66196;BME280;53000;45.182;5.736;2022-07-22T11:46:40;99007.50;;;40.16;17.96
66196;BME280;53000;45.182;5.736;2022-07-22T11:49:07;99010.22;;;40.28;18.98
66196;BME280;53000;45.182;5.736;2022-07-22T11:51:35;98999.81;;;40.36;18.01
66196;BME280;53000;45.182;5.736;2022-07-22T11:54:02;98989.69;;;40.35;17.96
66196;BME280;53000;45.182;5.736;2022-07-22T11:56:28;98986.16;;;40.41;17.55
66196;BME280;53000;45.182;5.736;2022-07-22T11:58:54;98985.53;;;40.52;17.48
66196;BME280;53000;45.182;5.736;2022-07-22T12:01:22;98983.81;;;40.70;16.55
66196;BME280;53000;45.182;5.736;2022-07-22T12:03:53;98970.59;;;40.78;16.24
66196;BME280;53000;45.182;5.736;2022-07-22T12:06:20;98978.06;;;40.90;16.91
66196;BME280;53000;45.182;5.736;2022-07-22T12:08:52;98980.22;;;40.96;17.54
66196;BME280;53000;45.182;5.736;2022-07-22T12:11:19;98969.25;;;40.95;15.70
66196;BME280;53000;45.182;5.736;2022-07-22T12:13:47;98967.16;;;40.92;16.09
66196;BME280;53000;45.182;5.736;2022-07-22T12:16:30;98965.56;;;40.94;16.73
66196;BME280;53000;45.182;5.736;2022-07-22T12:19:01;98953.56;;;41.04;16.52
66196;BME280;53000;45.182;5.736;2022-07-22T12:21:30;98941.59;;;41.15;16.24
66196;BME280;53000;45.182;5.736;2022-07-22T12:24:05;98945.81;;;41.24;15.95
66196;BME280;53000;45.182;5.736;2022-07-22T12:26:47;98945.09;;;41.31;16.55
66196;BME280;53000;45.182;5.736;2022-07-22T12:31:47;98940.50;;;41.23;16.69
66196;BME280;53000;45.182;5.736;2022-07-22T12:34:13;98934.75;;;41.19;16.61
66196;BME280;53000;45.182;5.736;2022-07-22T12:36:43;98951.31;;;41.14;16.08
66196;BME280;53000;45.182;5.736;2022-07-22T12:39:17;98953.25;;;41.10;15.97
66196;BME280;53000;45.182;5.736;2022-07-22T12:41:48;98939.81;;;41.06;16.65
66196;BME280;53000;45.182;5.736;2022-07-22T12:44:16;98947.91;;;41.04;16.71
66196;BME280;53000;45.182;5.736;2022-07-22T12:46:50;98938.91;;;40.99;16.70
66196;BME280;53000;45.182;5.736;2022-07-22T12:49:19;98928.00;;;41.01;17.19
66196;BME280;53000;45.182;5.736;2022-07-22T12:52:07;98931.00;;;41.12;16.89
66196;BME280;53000;45.182;5.736;2022-07-22T12:54:33;98922.06;;;41.13;16.58
66196;BME280;53000;45.182;5.736;2022-07-22T12:56:59;98930.56;;;41.10;16.72
66196;BME280;53000;45.182;5.736;2022-07-22T12:59:25;98922.41;;;41.08;17.33
66196;BME280;53000;45.182;5.736;2022-07-22T13:01:50;98923.72;;;41.14;16.35
66196;BME280;53000;45.182;5.736;2022-07-22T13:04:16;98906.75;;;41.18;17.00
66196;BME280;53000;45.182;5.736;2022-07-22T13:06:41;98914.50;;;41.21;16.29
66196;BME280;53000;45.182;5.736;2022-07-22T13:09:07;98915.00;;;41.26;16.59
66196;BME280;53000;45.182;5.736;2022-07-22T13:11:32;98918.31;;;41.32;16.67
66196;BME280;53000;45.182;5.736;2022-07-22T13:13:58;98913.84;;;41.31;16.40
66196;BME280;53000;45.182;5.736;2022-07-22T13:16:23;98917.06;;;41.30;16.49